Onde está Santo Estevam, Lisboa en Portugal?

 

Santo Estevam está situado na região Lisboa em Portugal!

Buscar o nome de uma cidade:

Santa Rita, Santa Cruz, Santosse, Santa Luzia, Santo Domingo

Aqui você vai encontrar a localização de Santo Estevam em um mapa.
Para ver como ele atualmente parece, abaixo estão algumas fotos da região, com webcams online.
Você também pode encontrar a distância para as principais cidades da região e de cidades do resto do Portugal.

2 lugares nomeadas Santo Estevam na Portugal.

Cidades do mundo
Cidades em Portugal que também são encontradas em outros países do mundo.


Onde está Santo Estevam no mapa?




Webcams perto Santo Estevam

Nossa Senhora do Populo, Coto e Sao Gregorio: Caldas da Rainha.


Nossa Senhora do Populo, Coto e Sao Gregorio: Caldas da Rainha - Dia
Actual
Nossa Senhora do Populo, Coto e Sao Gregorio: Caldas da Rainha - Actual

Foz do Arelho.


Foz do Arelho - Dia
Actual
Foz do Arelho - Actual

Benavente › North-East: Santarém - AIrport, METAR: BENAV 180005Z 36004KT 17/14 Q1015.


Benavente › North-East: Santarém - AIrport, METAR: BENAV 180005Z 36004KT 17/14 Q1015 - Dia
Actual
Benavente › North-East: Santarém - AIrport, METAR: BENAV 180005Z 36004KT 17/14 Q1015 - Actual

Webcams provided by webcams.travel


Distâncias

Onde está Santo Estevam em relação a outros lugares?

Top 10 cidades em Lisboa e distância de Santo Estevam.

Cidade#Populaçãokmmilhas
Lisbon15177985635
Amadora21788565534
Queluz31033985534
Loures4662304528
Rio de Mouro5546955635
Odivelas6546234830
São Domingos de Rana7467176440
Cascais8364366943
Alcabideche9333156440
Póvoa de Santa Iria10289003924

Top 10 cidades em Portugal e distância de Santo Estevam.

Cidade # Populaçãokmmilhas
Lisbon15177985635
Porto2249630219136
Amadora31788565534
Braga4121393266165
Setúbal51171097446
Coimbra610658012175
Queluz71033985534
Funchal8980411020634
Vila Nova de Gaia970810217135
Loures10662304528



Info

Estatística e Geografia

Portugal é composta de 15299 cidades em 20 regiões.

A região de Lisboa tem 1032 cidades.

Santo Estevam é o número 889 na região Lisboa.

A cidade é o número 12358 na Portugal.

Onde está Santo Estevam, Lisboa en Portugal?